This is the latest recevied weather packets stored in our database for station/object SM6LNJ-13. If no packets are shown the sender has not sent any weather packets the latest 1 day(s).
| Time | Temp. | Humidity | Pressure | Rain* | Wind** | Luminosity | Snow |
|---|---|---|---|---|---|---|---|
| 1777995350 | 13.33° C | 41% | 1427.2 hPa | 0 mm | 0.89 m/s, 194° | - | - |
| 1777995230 | 13.33° C | 41% | 1426.6 hPa | 0 mm | 0.89 m/s, 194° | - | - |
| 1777995110 | 12.78° C | 42% | 1426 hPa | 0 mm | 0.45 m/s, 170° | - | - |
| 1777994990 | 12.78° C | 41% | 1425.4 hPa | 0 mm | 0.45 m/s, 166° | - | - |
| 1777994870 | 12.78° C | 40% | 1425.7 hPa | 0 mm | 0.89 m/s, 179° | - | - |
| 1777994750 | 13.33° C | 40% | 1426.6 hPa | 0 mm | 0.89 m/s, 177° | - | - |
| 1777994510 | 13.89° C | 41% | 1427.8 hPa | 0 mm | 0.45 m/s, 184° | - | - |
| 1777994390 | 13.33° C | 40% | 1427.7 hPa | 0 mm | 0.45 m/s, 189° | - | - |
| 1777994270 | 13.89° C | 38% | 1427.9 hPa | 0 mm | 0.45 m/s, 195° | - | - |
| 1777994150 | 13.89° C | 39% | 1428.2 hPa | 0 mm | 0.89 m/s, 200° | - | - |
| 1777994030 | 13.89° C | 39% | 1428.3 hPa | 0 mm | 0.45 m/s, 184° | - | - |
| 1777993910 | 13.89° C | 40% | 1428.2 hPa | 0 mm | 0.45 m/s, 215° | - | - |
| 1777993905 | 13.89° C | 40% | 1428.3 hPa | 0 mm | 0.45 m/s, 172° | - | - |
| 1777993670 | 13.89° C | 39% | 1428 hPa | 0 mm | 0.45 m/s, 198° | - | - |
| 1777993550 | 13.89° C | 39% | 1428.1 hPa | 0 mm | 0.89 m/s, 196° | - | - |
| 1777993430 | 13.89° C | 39% | 1427.9 hPa | 0 mm | 0.45 m/s, 204° | - | - |
| 1777993310 | 13.89° C | 39% | 1427.9 hPa | 0 mm | 0.45 m/s, 163° | - | - |
| 1777993190 | 13.89° C | 39% | 1427.9 hPa | 0 mm | 0.45 m/s, 198° | - | - |
| 1777993070 | 13.89° C | 39% | 1428.4 hPa | 0 mm | 0.89 m/s, 185° | - | - |
| 1777992950 | 13.89° C | 40% | 1428.7 hPa | 0 mm | 0.45 m/s, 187° | - | - |
| 1777992830 | 13.89° C | 40% | 1428.4 hPa | 0 mm | 0.45 m/s, 170° | - | - |
| 1777992710 | 13.33° C | 39% | 1427.6 hPa | 0 mm | 0.89 m/s, 201° | - | - |
| 1777992590 | 13.89° C | 38% | 1428 hPa | 0 mm | 0.89 m/s, 189° | - | - |
| 1777992470 | 14.44° C | 37% | 1429.2 hPa | 0 mm | 0.89 m/s, 186° | - | - |
| 1777992350 | 15° C | 37% | 1430.6 hPa | 0 mm | 0.89 m/s, 188° | - | - |
* Rain latest hour (hover to see other rain measurements)
** Current wind speed in m/s (hover to see current wind gust speed)